Time;durP1;ratioP1;P1;durP2;ratioP2;P2;SDS_P1;SDS_P2;PMS_P1;PMS_P2;Temp;Humidity;BMP_temperature;BMP_pressure;BME280_temperature;BME280_humidity;BME280_pressure;Samples;Min_cycle;Max_cycle;Signal;HPM_P1;HPM_P2
2023/08/06 00:00:34;;;;;;;13.80;11.50;;;;;;;17.63;92.42;98707.76;217331;1260;140071;-70
2023/08/06 00:05:59;;;;;;;14.00;12.50;;;;;;;17.64;92.50;98725.85;218986;1257;142215;-68
2023/08/06 00:11:03;;;;;;;10.60;9.50;;;;;;;17.64;92.53;98686.16;218132;1257;139971;-65
2023/08/06 00:16:11;;;;;;;12.40;10.00;;;;;;;17.64;92.65;98647.96;219334;1257;140554;-65
2023/08/06 00:21:16;;;;;;;8.70;7.90;;;;;;;17.66;92.64;98619.64;220128;1256;141057;-66
2023/08/06 00:26:20;;;;;;;8.30;7.50;;;;;;;17.65;92.56;98588.71;219354;1256;140358;-66
2023/08/06 00:31:30;;;;;;;7.00;6.40;;;;;;;17.66;92.36;98559.44;220481;1256;139943;-65
2023/08/06 00:36:34;;;;;;;6.50;5.90;;;;;;;17.65;92.24;98551.14;220420;1256;141515;-65
2023/08/06 00:41:39;;;;;;;7.40;6.70;;;;;;;17.64;92.12;98578.05;219132;1256;141855;-67
2023/08/06 00:46:44;;;;;;;7.30;6.60;;;;;;;17.65;92.07;98614.17;219614;1257;140291;-66
2023/08/06 00:51:50;;;;;;;7.40;6.40;;;;;;;17.67;92.25;98648.98;219432;1256;140185;-65
2023/08/06 00:56:57;;;;;;;7.30;6.50;;;;;;;17.70;92.14;98660.52;218647;1257;139868;-68
2023/08/06 01:02:02;;;;;;;8.30;7.00;;;;;;;17.69;92.07;98640.77;219152;1256;140382;-68
2023/08/06 01:07:14;;;;;;;6.30;5.80;;;;;;;17.67;92.12;98603.17;218511;1256;140250;-67
2023/08/06 01:12:31;;;;;;;6.80;6.20;;;;;;;17.67;92.24;98587.27;218818;1256;140095;-66
2023/08/06 01:17:36;;;;;;;7.50;6.40;;;;;;;17.66;92.28;98571.73;218647;1256;139430;-68
2023/08/06 01:22:41;;;;;;;7.40;6.10;;;;;;;17.64;92.45;98589.34;218416;1260;140347;-66
2023/08/06 01:27:49;;;;;;;5.90;5.40;;;;;;;17.65;92.54;98580.48;218236;1256;139532;-66
2023/08/06 01:33:00;;;;;;;6.50;5.90;;;;;;;17.66;92.51;98588.32;219107;1256;139670;-67
2023/08/06 01:38:05;;;;;;;5.60;5.10;;;;;;;17.68;92.69;98571.15;217734;1259;141539;-66
2023/08/06 01:43:10;;;;;;;7.00;6.40;;;;;;;17.66;92.64;98525.95;217976;1256;139832;-67
2023/08/06 01:48:15;;;;;;;6.80;6.20;;;;;;;17.64;92.69;98499.42;218337;1257;140275;-67
2023/08/06 01:53:20;;;;;;;6.40;5.80;;;;;;;17.63;92.92;98509.04;218039;1256;139506;-67
2023/08/06 01:58:25;;;;;;;6.20;5.40;;;;;;;17.64;93.07;98542.06;219334;1256;140926;-67
2023/08/06 02:03:30;;;;;;;8.20;7.10;;;;;;;17.66;93.11;98548.75;217852;1257;141058;-67
2023/08/06 02:08:34;;;;;;;10.60;7.30;;;;;;;17.70;93.27;98538.19;219039;1256;139339;-68
2023/08/06 02:13:39;;;;;;;11.50;7.30;;;;;;;17.74;93.31;98477.33;219639;1256;139766;-67
2023/08/06 02:18:43;;;;;;;6.60;6.00;;;;;;;17.72;93.22;98322.17;219954;1256;140738;-67
2023/08/06 02:23:49;;;;;;;5.70;5.10;;;;;;;17.64;93.33;98218.04;220214;1256;140149;-67
2023/08/06 02:28:54;;;;;;;8.40;6.60;;;;;;;17.62;93.44;98263.89;220231;1256;139613;-67
2023/08/06 02:33:58;;;;;;;5.90;5.40;;;;;;;17.63;93.64;98268.88;219628;1256;139930;-67
2023/08/06 02:39:02;;;;;;;5.90;5.40;;;;;;;17.67;93.75;98250.90;220194;1256;140382;-66
2023/08/06 02:44:06;;;;;;;5.00;4.60;;;;;;;17.68;93.77;98204.07;219741;1256;140933;-68
2023/08/06 02:49:11;;;;;;;7.70;5.10;;;;;;;17.71;93.72;98182.33;219481;1255;139787;-68
2023/08/06 02:54:16;;;;;;;15.70;5.80;;;;;;;17.69;93.45;98169.73;219008;1256;139228;-67
2023/08/06 02:59:21;;;;;;;7.20;6.60;;;;;;;17.67;93.63;98145.04;219007;1256;139637;-69
2023/08/06 03:04:26;;;;;;;9.50;6.50;;;;;;;17.67;93.83;98214.57;219088;1256;620288;-70
2023/08/06 03:09:31;;;;;;;6.80;6.10;;;;;;;17.68;94.07;98271.56;218771;1256;139973;-67
2023/08/06 03:14:36;;;;;;;8.20;6.00;;;;;;;17.70;94.21;98243.02;218839;1256;139958;-67
2023/08/06 03:19:42;;;;;;;6.50;6.00;;;;;;;17.71;94.23;98248.84;218161;1257;139290;-67
2023/08/06 03:24:50;;;;;;;7.30;6.60;;;;;;;17.74;94.53;98257.58;217749;1256;139690;-67
2023/08/06 03:30:00;;;;;;;7.10;6.30;;;;;;;17.76;94.63;98280.88;217641;1259;139920;-68
2023/08/06 03:35:06;;;;;;;7.70;7.00;;;;;;;17.80;94.74;98284.70;218324;1260;140139;-70
2023/08/06 03:40:11;;;;;;;7.30;6.50;;;;;;;17.83;94.90;98275.77;217924;1256;139472;-69
2023/08/06 03:45:19;;;;;;;8.80;7.30;;;;;;;17.87;94.97;98266.55;217557;1256;139540;-69
2023/08/06 03:50:25;;;;;;;11.30;7.40;;;;;;;17.92;95.16;98253.39;218507;1257;143106;-68
2023/08/06 03:55:29;;;;;;;8.80;7.30;;;;;;;17.98;95.00;98244.92;218251;1256;140299;-67
2023/08/06 04:00:34;;;;;;;10.20;7.40;;;;;;;18.01;95.04;98237.98;217883;1260;140275;-68
2023/08/06 04:05:39;;;;;;;11.10;6.90;;;;;;;18.03;95.02;98226.82;219146;1256;140493;-69
2023/08/06 04:10:44;;;;;;;7.90;6.30;;;;;;;18.05;94.95;98221.34;218937;1256;140447;-67
2023/08/06 04:15:50;;;;;;;8.30;7.50;;;;;;;18.08;94.94;98213.23;219459;1256;139980;-68
2023/08/06 04:20:57;;;;;;;8.50;7.30;;;;;;;18.10;94.92;98213.77;219436;1256;139244;-68
2023/08/06 04:26:02;;;;;;;10.40;8.40;;;;;;;18.13;95.03;98212.20;220159;1256;140098;-68
2023/08/06 04:31:07;;;;;;;7.00;6.30;;;;;;;18.16;95.02;98207.95;219659;1256;140043;-69
2023/08/06 04:36:12;;;;;;;8.30;7.20;;;;;;;18.20;94.94;98199.09;219896;1256;140441;-69
2023/08/06 04:41:17;;;;;;;9.60;8.00;;;;;;;18.23;94.83;98196.83;219370;1256;139623;-69
2023/08/06 04:46:23;;;;;;;9.40;8.30;;;;;;;18.27;94.80;98191.88;219029;1256;139338;-68
2023/08/06 04:51:28;;;;;;;9.70;8.90;;;;;;;18.32;94.89;98192.97;217781;1259;140429;-68
2023/08/06 04:56:32;;;;;;;11.40;8.80;;;;;;;18.38;95.07;98197.75;218351;1259;141624;-68
2023/08/06 05:01:36;;;;;;;13.50;7.40;;;;;;;18.41;94.96;98193.65;218010;1260;140807;-69
2023/08/06 05:06:41;;;;;;;8.70;7.90;;;;;;;18.42;94.91;98190.25;219105;1256;139641;-69
2023/08/06 05:11:44;;;;;;;7.90;7.10;;;;;;;18.44;95.06;98176.69;218479;1259;139556;-68
2023/08/06 05:16:49;;;;;;;8.40;6.90;;;;;;;18.47;95.09;98166.71;217741;1260;139335;-67
2023/08/06 05:21:54;;;;;;;16.30;9.80;;;;;;;18.50;95.29;98162.42;218215;1257;139570;-66
2023/08/06 05:27:02;;;;;;;8.00;6.80;;;;;;;18.52;95.18;98154.31;217876;1256;153327;-67
2023/08/06 05:32:07;;;;;;;8.30;7.50;;;;;;;18.56;95.54;98154.61;218671;1256;140170;-68
2023/08/06 05:37:11;;;;;;;9.80;9.00;;;;;;;18.59;95.53;98144.46;218169;1257;139633;-68
2023/08/06 05:42:15;;;;;;;10.20;8.90;;;;;;;18.65;95.40;98138.45;217922;1259;139550;-67
2023/08/06 05:47:19;;;;;;;9.20;8.30;;;;;;;18.70;95.39;98128.06;218372;1257;139844;-67
2023/08/06 05:52:24;;;;;;;7.70;6.90;;;;;;;18.77;95.45;98114.16;217487;1256;140109;-66
2023/08/06 05:57:29;;;;;;;7.80;7.10;;;;;;;18.83;95.52;98108.06;218633;1256;139518;-68
2023/08/06 06:02:34;;;;;;;7.90;7.30;;;;;;;18.89;95.50;98106.05;219201;1256;140632;-69
2023/08/06 06:07:38;;;;;;;8.30;7.50;;;;;;;18.97;95.44;98102.55;218831;1256;139616;-68
2023/08/06 06:12:43;;;;;;;8.60;7.20;;;;;;;19.05;95.43;98097.28;219117;1256;140063;-69
2023/08/06 06:17:48;;;;;;;7.10;6.50;;;;;;;19.12;95.27;98100.88;220413;1256;140715;-69
2023/08/06 06:22:53;;;;;;;6.60;5.70;;;;;;;19.17;95.09;98090.42;219919;1256;140838;-70
2023/08/06 06:27:58;;;;;;;6.80;6.20;;;;;;;19.22;94.76;98090.84;220074;1257;139598;-68
2023/08/06 06:33:03;;;;;;;6.10;5.50;;;;;;;19.26;94.62;98079.00;220109;1257;139314;-67
2023/08/06 06:38:08;;;;;;;5.70;5.20;;;;;;;19.32;94.71;98064.24;219433;1258;140387;-67
2023/08/06 06:43:16;;;;;;;5.00;4.60;;;;;;;19.42;94.69;98060.98;219715;1259;140575;-66
2023/08/06 06:48:21;;;;;;;5.10;4.60;;;;;;;19.53;94.72;98050.95;219393;1258;140671;-67
2023/08/06 06:53:27;;;;;;;4.30;4.00;;;;;;;19.60;94.48;98041.92;219195;1256;140604;-66
2023/08/06 06:58:33;;;;;;;3.90;3.60;;;;;;;19.62;94.30;98036.82;219223;1257;140613;-67
2023/08/06 07:03:37;;;;;;;3.60;3.30;;;;;;;19.64;94.26;98028.09;219220;1260;139331;-69
2023/08/06 07:08:43;;;;;;;3.30;3.10;;;;;;;19.70;94.39;98027.20;217877;1257;139230;-69
2023/08/06 07:13:49;;;;;;;3.50;3.20;;;;;;;19.73;94.37;98026.39;217875;1257;139461;-68
2023/08/06 07:18:54;;;;;;;3.00;2.80;;;;;;;19.74;94.20;98026.70;217636;1260;139713;-67
2023/08/06 07:23:59;;;;;;;3.30;3.10;;;;;;;19.74;94.28;98024.86;218274;1256;140274;-68
2023/08/06 07:29:06;;;;;;;3.50;3.20;;;;;;;19.78;94.33;98014.95;218663;1257;140428;-73
2023/08/06 07:34:11;;;;;;;8.20;4.50;;;;;;;19.81;94.35;98008.05;218723;1256;139688;-68
2023/08/06 07:39:16;;;;;;;4.60;3.50;;;;;;;19.84;94.38;98003.98;218322;1257;139527;-67
2023/08/06 07:44:21;;;;;;;3.50;3.20;;;;;;;19.91;94.27;97995.96;219431;1256;139968;-68
2023/08/06 07:49:27;;;;;;;6.50;3.40;;;;;;;20.01;94.23;97991.81;219155;1257;140163;-67
2023/08/06 07:54:32;;;;;;;2.80;2.70;;;;;;;20.06;93.93;97985.41;219064;1260;140068;-71
2023/08/06 07:59:38;;;;;;;4.00;2.80;;;;;;;20.04;93.69;97973.83;218088;1256;140045;-68
2023/08/06 08:04:47;;;;;;;3.70;3.50;;;;;;;20.07;93.95;97966.66;218554;1257;141218;-68
2023/08/06 08:09:51;;;;;;;3.50;3.20;;;;;;;20.09;94.10;97960.09;218493;1256;140390;-71
2023/08/06 08:14:55;;;;;;;3.70;3.40;;;;;;;20.13;94.26;97960.20;220359;1257;140062;-69
2023/08/06 08:20:00;;;;;;;4.40;4.00;;;;;;;20.18;94.12;97954.52;220360;1256;141683;-69
2023/08/06 08:25:06;;;;;;;4.00;3.70;;;;;;;20.25;93.98;97958.82;219383;1257;140276;-68
2023/08/06 08:30:10;;;;;;;5.10;4.20;;;;;;;20.29;93.66;97954.09;220149;1256;139454;-69
2023/08/06 08:35:15;;;;;;;6.60;4.90;;;;;;;20.33;93.46;97951.35;220352;1256;140763;-69
2023/08/06 08:40:24;;;;;;;6.00;5.00;;;;;;;20.37;93.42;97953.89;219411;1257;140276;-71
2023/08/06 08:45:30;;;;;;;6.30;5.10;;;;;;;20.33;93.13;97947.11;218648;1257;140765;-66
2023/08/06 08:50:34;;;;;;;6.80;6.20;;;;;;;20.29;93.00;97935.46;219011;1257;142365;-74
2023/08/06 08:55:39;;;;;;;8.10;7.30;;;;;;;20.30;93.17;97926.84;218685;1260;140035;-70
2023/08/06 09:00:48;;;;;;;10.40;8.70;;;;;;;20.37;93.40;97921.67;218852;1259;140840;-69
2023/08/06 09:05:56;;;;;;;13.70;8.60;;;;;;;20.44;93.39;97921.57;218589;1257;140505;-69
2023/08/06 09:11:02;;;;;;;12.20;10.10;;;;;;;20.56;93.47;97917.92;219412;1261;139912;-69
2023/08/06 09:16:06;;;;;;;12.40;9.80;;;;;;;20.76;93.41;97897.61;218783;1256;139566;-71
2023/08/06 09:21:18;;;;;;;15.50;11.20;;;;;;;21.12;93.33;97878.52;218464;1256;142237;-70
2023/08/06 09:26:24;;;;;;;18.20;12.00;;;;;;;21.41;92.96;97868.33;217680;1259;142903;-67
2023/08/06 09:31:46;;;;;;;15.30;12.20;;;;;;;21.60;92.42;97858.08;218071;1261;140314;-67
2023/08/06 09:36:53;;;;;;;12.70;11.40;;;;;;;21.68;91.72;97858.76;217958;1256;140429;-67
2023/08/06 09:42:01;;;;;;;12.90;11.40;;;;;;;21.71;91.44;97856.62;219061;1259;141147;-67
2023/08/06 09:47:06;;;;;;;14.20;12.20;;;;;;;21.70;91.66;97846.86;219460;1256;142278;-67
2023/08/06 09:52:18;;;;;;;17.50;12.10;;;;;;;21.61;90.99;97848.11;218339;1257;142635;-67
2023/08/06 09:57:25;;;;;;;13.80;12.30;;;;;;;21.59;91.20;97846.74;219611;1256;140623;-67
2023/08/06 10:02:29;;;;;;;13.30;12.00;;;;;;;21.57;91.01;97837.81;218588;1257;141362;-70
2023/08/06 10:07:39;;;;;;;14.90;10.80;;;;;;;21.62;91.21;97830.16;220046;1256;140667;-70
2023/08/06 10:12:50;;;;;;;14.10;11.80;;;;;;;21.62;90.87;97821.65;219515;1257;208089;-67
2023/08/06 10:17:58;;;;;;;12.00;10.80;;;;;;;21.64;90.94;97817.98;220172;1256;140402;-66
2023/08/06 10:23:07;;;;;;;15.00;10.10;;;;;;;21.67;90.70;97813.84;220249;1257;140009;-68
2023/08/06 10:28:14;;;;;;;11.30;9.90;;;;;;;21.60;90.01;97806.80;220019;1257;139908;-74
2023/08/06 10:33:21;;;;;;;10.80;9.80;;;;;;;21.54;90.28;97794.35;217523;1257;140861;-69
2023/08/06 10:38:29;;;;;;;11.40;9.10;;;;;;;21.55;90.28;97794.13;219527;1257;139944;-69
2023/08/06 10:43:41;;;;;;;12.30;10.20;;;;;;;21.57;90.62;97789.55;218091;1256;140507;-67
2023/08/06 10:48:46;;;;;;;20.40;10.90;;;;;;;21.66;90.84;97789.20;218866;1257;162301;-68
2023/08/06 10:53:52;;;;;;;12.80;11.50;;;;;;;21.61;90.19;97779.79;218403;1257;245723;-68
2023/08/06 10:58:58;;;;;;;14.40;12.90;;;;;;;21.47;90.00;97776.68;217711;1261;139927;-67
2023/08/06 11:04:05;;;;;;;16.00;12.90;;;;;;;21.49;90.74;97764.41;217820;1257;139790;-68
2023/08/06 11:09:09;;;;;;;17.00;14.30;;;;;;;21.80;91.16;97761.52;218473;1256;140832;-64
2023/08/06 11:14:17;;;;;;;18.40;14.40;;;;;;;21.86;91.03;97755.91;218109;1260;141376;-65
2023/08/06 11:19:23;;;;;;;18.10;15.20;;;;;;;21.96;91.23;97758.98;218238;1257;141068;-66
2023/08/06 11:24:27;;;;;;;16.40;14.60;;;;;;;22.10;91.14;97749.75;218692;1256;141493;-64
2023/08/06 11:29:30;;;;;;;16.90;14.50;;;;;;;22.54;91.50;97733.86;218623;1256;139948;-66
2023/08/06 11:34:35;;;;;;;5.80;5.20;;;;;;;22.81;91.04;97766.10;217887;1257;140085;-65
2023/08/06 11:39:48;;;;;;;1.50;1.40;;;;;;;22.31;85.79;97783.17;218961;1256;140547;-66
2023/08/06 11:44:57;;;;;;;0.60;0.60;;;;;;;21.27;82.96;97810.98;219451;1256;139839;-64
2023/08/06 11:50:04;;;;;;;1.20;0.80;;;;;;;20.41;82.85;97801.45;218672;1256;141542;-67
2023/08/06 11:55:10;;;;;;;0.60;0.60;;;;;;;19.88;83.05;97797.71;218140;1256;140260;-68
2023/08/06 12:00:17;;;;;;;6.60;0.60;;;;;;;19.47;83.48;97789.54;217986;1262;140232;-67
2023/08/06 12:05:25;;;;;;;0.40;0.40;;;;;;;19.20;83.72;97799.50;218104;1256;139639;-69
2023/08/06 12:10:30;;;;;;;1.00;0.60;;;;;;;19.02;83.98;97813.27;220046;1257;139947;-70
2023/08/06 12:15:34;;;;;;;0.60;0.60;;;;;;;18.93;84.56;97820.38;220095;1256;140302;-68
2023/08/06 12:20:38;;;;;;;0.70;0.70;;;;;;;18.93;84.65;97812.69;220160;1259;139957;-69
2023/08/06 12:25:42;;;;;;;1.20;0.80;;;;;;;19.15;84.92;97797.11;220224;1257;140417;-69
2023/08/06 12:30:47;;;;;;;0.90;0.70;;;;;;;19.40;85.08;97818.05;219052;1259;139792;-68
2023/08/06 12:35:54;;;;;;;1.00;1.00;;;;;;;19.60;85.46;97831.65;219786;1257;139520;-68
2023/08/06 12:40:59;;;;;;;0.80;0.80;;;;;;;19.59;84.73;97841.11;218601;1260;139817;-70
2023/08/06 12:46:04;;;;;;;0.60;0.60;;;;;;;19.43;84.19;97828.69;218239;1257;139772;-66
2023/08/06 12:51:09;;;;;;;1.00;0.80;;;;;;;19.44;84.45;97800.48;218195;1257;140143;-66
2023/08/06 12:56:14;;;;;;;5.10;1.20;;;;;;;19.43;84.41;97773.66;217542;1260;140055;-71
2023/08/06 13:01:20;;;;;;;3.60;1.00;;;;;;;19.50;84.15;97779.11;218564;1256;139583;-69
2023/08/06 13:06:30;;;;;;;0.80;0.80;;;;;;;19.70;84.33;97782.20;218440;1262;140216;-69
2023/08/06 13:11:37;;;;;;;0.90;0.90;;;;;;;19.82;84.03;97769.59;217698;1257;139902;-71
2023/08/06 13:16:45;;;;;;;0.70;0.70;;;;;;;19.81;83.02;97780.14;219318;1257;140735;-70
2023/08/06 13:21:51;;;;;;;2.50;0.70;;;;;;;19.64;83.07;97778.71;218990;1261;140893;-69
2023/08/06 13:26:55;;;;;;;0.80;0.80;;;;;;;19.61;83.62;97794.84;218302;1257;140168;-69
2023/08/06 13:31:59;;;;;;;0.70;0.70;;;;;;;19.59;83.55;97826.90;218565;1262;141452;-68
2023/08/06 13:37:04;;;;;;;0.80;0.80;;;;;;;19.37;83.08;97888.43;218873;1257;140226;-68
2023/08/06 13:42:08;;;;;;;1.70;0.80;;;;;;;19.03;83.12;97884.60;219223;1258;139565;-68
2023/08/06 13:47:12;;;;;;;1.30;0.90;;;;;;;18.86;83.74;97909.48;218211;1261;140597;-67
2023/08/06 13:52:16;;;;;;;0.50;0.50;;;;;;;18.74;83.95;97911.73;217362;1261;140849;-69
2023/08/06 13:57:24;;;;;;;0.60;0.60;;;;;;;18.62;84.18;97927.06;218221;1257;140996;-68
2023/08/06 14:02:29;;;;;;;0.70;0.70;;;;;;;18.45;84.08;97946.60;218779;1260;140542;-68
2023/08/06 14:07:32;;;;;;;1.50;0.70;;;;;;;18.18;84.34;97955.01;220494;1257;139937;-69
2023/08/06 14:12:36;;;;;;;0.80;0.80;;;;;;;18.03;84.80;97956.80;220149;1260;140322;-67
2023/08/06 14:17:43;;;;;;;1.40;0.80;;;;;;;18.02;85.33;97943.30;219979;1261;142125;-68
2023/08/06 14:22:49;;;;;;;1.40;0.90;;;;;;;18.03;85.34;97933.26;219350;1257;141591;-71
2023/08/06 14:27:53;;;;;;;4.90;1.10;;;;;;;18.13;85.83;97937.46;219102;1261;139889;-71
2023/08/06 14:32:56;;;;;;;0.70;0.70;;;;;;;18.14;85.84;97955.86;219228;1257;139795;-71
2023/08/06 14:38:08;;;;;;;1.00;0.80;;;;;;;18.06;85.56;97966.00;218441;1259;140076;-75
2023/08/06 14:43:12;;;;;;;1.30;1.00;;;;;;;17.93;85.55;97970.11;217367;1262;139725;-68
2023/08/06 14:48:18;;;;;;;1.10;1.10;;;;;;;18.01;86.05;97970.89;217792;1257;139526;-73
2023/08/06 14:53:22;;;;;;;1.30;1.30;;;;;;;18.06;85.97;97968.46;219471;1261;140439;-69
2023/08/06 14:58:26;;;;;;;1.10;1.10;;;;;;;18.00;85.68;97962.55;219144;1257;139565;-68
2023/08/06 15:03:31;;;;;;;1.30;1.20;;;;;;;17.90;85.58;97964.92;217594;1257;293589;-68
2023/08/06 15:08:36;;;;;;;2.40;1.30;;;;;;;17.93;85.73;97973.60;218355;1257;139699;-70
2023/08/06 15:13:41;;;;;;;1.40;1.40;;;;;;;17.91;85.68;97982.45;217942;1257;140038;-69
2023/08/06 15:18:45;;;;;;;1.60;1.10;;;;;;;17.81;85.55;97985.92;218461;1257;140100;-71
2023/08/06 15:23:50;;;;;;;1.80;1.30;;;;;;;17.80;85.83;97984.63;218073;1261;139956;-69
2023/08/06 15:28:56;;;;;;;1.20;1.20;;;;;;;17.69;85.53;97988.45;218742;1257;139474;-69
2023/08/06 15:34:03;;;;;;;1.30;1.30;;;;;;;17.62;85.55;97991.66;218913;1257;140366;-69
2023/08/06 15:39:08;;;;;;;1.00;1.00;;;;;;;17.60;85.82;97994.33;219053;1260;140045;-69
2023/08/06 15:44:17;;;;;;;2.10;1.10;;;;;;;17.57;85.79;98000.92;218148;1257;139640;-67
2023/08/06 15:49:24;;;;;;;0.80;0.80;;;;;;;17.58;85.83;98010.27;218525;1257;139473;-67
2023/08/06 15:54:29;;;;;;;0.90;0.90;;;;;;;17.49;85.54;98019.42;218845;1257;141600;-71
2023/08/06 15:59:35;;;;;;;0.90;0.90;;;;;;;17.41;85.93;98030.48;217840;1257;140573;-67
2023/08/06 16:04:41;;;;;;;0.60;0.60;;;;;;;17.35;85.87;97996.46;218662;1255;139928;-70
2023/08/06 16:09:47;;;;;;;0.30;0.30;;;;;;;17.37;86.04;97956.54;220272;1257;140001;-68
2023/08/06 16:14:53;;;;;;;0.40;0.40;;;;;;;17.42;86.04;97973.13;219311;1257;140027;-68
2023/08/06 16:19:57;;;;;;;0.80;0.50;;;;;;;17.43;85.97;98016.34;220289;1257;140210;-67
2023/08/06 16:25:09;;;;;;;1.40;0.40;;;;;;;17.33;85.78;98037.94;220306;1257;139764;-70
2023/08/06 16:30:16;;;;;;;0.40;0.40;;;;;;;17.23;86.09;98034.88;218676;1257;139720;-66
2023/08/06 16:35:22;;;;;;;0.50;0.50;;;;;;;17.11;86.14;98041.83;218814;1257;139699;-70
2023/08/06 16:40:30;;;;;;;0.50;0.50;;;;;;;17.01;86.37;98056.61;218220;1258;140909;-67
2023/08/06 16:45:37;;;;;;;10.60;1.10;;;;;;;16.91;86.53;98068.54;217989;1258;154122;-70
2023/08/06 16:50:43;;;;;;;0.20;0.20;;;;;;;16.84;86.79;98066.78;217970;1257;140400;-69
2023/08/06 16:55:53;;;;;;;5.70;0.60;;;;;;;16.84;87.16;98065.29;218511;1257;140048;-67
2023/08/06 17:01:04;;;;;;;0.40;0.40;;;;;;;16.87;87.33;98063.80;217477;1258;235849;-67
2023/08/06 17:06:14;;;;;;;0.40;0.40;;;;;;;16.89;87.57;98070.46;218482;1257;139716;-72
2023/08/06 17:11:21;;;;;;;0.50;0.50;;;;;;;16.93;87.64;98067.23;218664;1257;139223;-69
2023/08/06 17:16:27;;;;;;;1.20;0.50;;;;;;;16.87;87.45;98085.33;218916;1258;232831;-69
2023/08/06 17:21:33;;;;;;;0.50;0.50;;;;;;;16.77;87.54;98082.06;217702;1260;140561;-68
2023/08/06 17:26:38;;;;;;;0.30;0.30;;;;;;;16.63;87.57;98084.47;218360;1257;140316;-69
2023/08/06 17:31:46;;;;;;;0.80;0.80;;;;;;;16.49;87.74;98074.83;218902;1257;140845;-69
2023/08/06 17:36:59;;;;;;;0.30;0.30;;;;;;;16.36;88.09;98079.16;217886;1258;139467;-68
2023/08/06 17:42:10;;;;;;;0.40;0.40;;;;;;;16.31;88.24;98073.45;219226;1257;140893;-68
2023/08/06 17:47:18;;;;;;;1.20;0.90;;;;;;;16.29;88.53;98067.48;218280;1257;139399;-67
2023/08/06 17:52:42;;;;;;;1.90;0.50;;;;;;;16.25;88.57;98085.77;220554;1257;140179;-71
2023/08/06 17:57:47;;;;;;;2.20;0.90;;;;;;;16.19;88.77;98080.30;220702;1254;140080;-68
2023/08/06 18:02:51;;;;;;;0.70;0.70;;;;;;;16.16;88.93;98086.67;220745;1254;139976;-70
2023/08/06 18:07:59;;;;;;;0.70;0.70;;;;;;;16.10;88.91;98101.19;220306;1254;140725;-69
2023/08/06 18:13:05;;;;;;;0.30;0.30;;;;;;;16.02;88.96;98105.47;220573;1257;140621;-68
2023/08/06 18:18:12;;;;;;;0.60;0.60;;;;;;;15.97;89.08;98106.42;220606;1255;140017;-69
2023/08/06 18:23:16;;;;;;;0.50;0.50;;;;;;;15.90;89.16;98109.34;218768;1257;140933;-66
2023/08/06 18:28:21;;;;;;;0.30;0.30;;;;;;;15.87;89.24;98109.40;218681;1254;139636;-68
2023/08/06 18:33:25;;;;;;;0.30;0.30;;;;;;;15.85;89.49;98112.61;218499;1257;142069;-70
2023/08/06 18:38:29;;;;;;;1.20;0.80;;;;;;;15.79;89.57;98113.18;218169;1254;140928;-69
2023/08/06 18:43:33;;;;;;;0.60;0.60;;;;;;;15.76;89.83;98133.64;218420;1257;139400;-67
2023/08/06 18:48:36;;;;;;;0.30;0.30;;;;;;;15.72;90.05;98142.65;218798;1254;140878;-66
2023/08/06 18:53:46;;;;;;;1.90;0.20;;;;;;;15.62;89.85;98141.77;218462;1258;139758;-66
2023/08/06 18:58:50;;;;;;;2.30;0.70;;;;;;;15.50;89.96;98140.11;219148;1256;140131;-66
2023/08/06 19:03:55;;;;;;;0.50;0.50;;;;;;;15.38;90.13;98150.52;218823;1254;139728;-66
2023/08/06 19:09:01;;;;;;;2.80;0.70;;;;;;;15.28;90.18;98151.56;219806;1255;139667;-67
2023/08/06 19:14:04;;;;;;;2.60;0.40;;;;;;;15.23;90.24;98159.64;218889;1256;140281;-70
2023/08/06 19:19:08;;;;;;;2.30;0.40;;;;;;;15.18;90.43;98163.67;217819;1255;141408;-68
2023/08/06 19:24:12;;;;;;;2.10;0.50;;;;;;;15.14;90.54;98165.41;218528;1256;140891;-68
2023/08/06 19:29:20;;;;;;;0.10;0.10;;;;;;;15.06;90.50;98157.85;218969;1256;139736;-67
2023/08/06 19:34:26;;;;;;;0.40;0.40;;;;;;;15.00;90.69;98149.93;219425;1254;140958;-68
2023/08/06 19:39:36;;;;;;;0.90;0.30;;;;;;;14.98;90.83;98148.12;219456;1256;140164;-66
2023/08/06 19:44:49;;;;;;;0.20;0.20;;;;;;;14.94;90.55;98152.83;220621;1256;139537;-66
2023/08/06 19:49:53;;;;;;;1.20;0.30;;;;;;;14.92;90.58;98166.66;220402;1256;140763;-66
2023/08/06 19:54:56;;;;;;;0.20;0.20;;;;;;;14.85;90.43;98181.98;220107;1256;140945;-67
2023/08/06 20:00:01;;;;;;;7.30;0.80;;;;;;;14.82;90.34;98186.17;219200;1257;141082;-71
2023/08/06 20:05:06;;;;;;;0.60;0.60;;;;;;;14.77;90.58;98188.40;220755;1254;139621;-66
2023/08/06 20:10:13;;;;;;;0.40;0.40;;;;;;;14.73;90.55;98192.88;220671;1254;139699;-66
2023/08/06 20:15:20;;;;;;;0.30;0.30;;;;;;;14.69;90.62;98177.83;219757;1255;139793;-66
2023/08/06 20:20:26;;;;;;;2.10;0.60;;;;;;;14.69;90.74;98178.73;220228;1256;140680;-66
2023/08/06 20:25:32;;;;;;;1.40;0.40;;;;;;;14.68;90.74;98189.08;219558;1256;139672;-66
2023/08/06 20:30:40;;;;;;;1.80;0.60;;;;;;;14.66;90.90;98191.16;218518;1257;140001;-69
2023/08/06 20:35:46;;;;;;;0.60;0.60;;;;;;;14.65;91.01;98195.60;218437;1256;140327;-68
2023/08/06 20:40:56;;;;;;;0.30;0.30;;;;;;;14.64;91.28;98194.96;218667;1256;140121;-69
2023/08/06 20:46:04;;;;;;;1.40;1.20;;;;;;;14.66;91.27;98199.44;218209;1256;140570;-68
2023/08/06 20:51:10;;;;;;;0.90;0.80;;;;;;;14.62;91.37;98209.76;219105;1256;140402;-69
2023/08/06 20:56:16;;;;;;;1.80;0.50;;;;;;;14.60;91.67;98198.53;218996;1259;139718;-66
2023/08/06 21:01:21;;;;;;;0.90;0.90;;;;;;;14.53;91.49;98202.30;217887;1256;140598;-68
2023/08/06 21:06:26;;;;;;;0.50;0.50;;;;;;;14.49;91.62;98195.61;219527;1256;140869;-68
2023/08/06 21:11:29;;;;;;;0.70;0.70;;;;;;;14.45;91.74;98188.88;219207;1257;141106;-68
2023/08/06 21:16:35;;;;;;;1.30;1.10;;;;;;;14.41;91.81;98188.02;217790;1257;140098;-67
2023/08/06 21:21:40;;;;;;;1.90;0.60;;;;;;;14.37;91.83;98184.35;217969;1256;141517;-68
2023/08/06 21:26:44;;;;;;;0.80;0.80;;;;;;;14.35;91.98;98190.23;219494;1254;140108;-68
2023/08/06 21:31:47;;;;;;;0.90;0.80;;;;;;;14.32;92.06;98194.73;219488;1258;141590;-68
2023/08/06 21:36:50;;;;;;;1.00;0.90;;;;;;;14.30;92.09;98196.06;217853;1254;139988;-67
2023/08/06 21:41:55;;;;;;;1.00;0.90;;;;;;;14.33;92.26;98192.64;220125;1254;139733;-68
2023/08/06 21:47:01;;;;;;;0.90;0.90;;;;;;;14.30;91.94;98194.89;219175;1254;139772;-68
2023/08/06 21:52:08;;;;;;;1.00;1.00;;;;;;;14.25;92.05;98203.59;219285;1254;140024;-69
2023/08/06 21:57:13;;;;;;;1.00;1.00;;;;;;;14.22;92.29;98215.55;220710;1256;140023;-69
2023/08/06 22:02:17;;;;;;;1.40;1.30;;;;;;;14.21;92.30;98235.98;220659;1254;140411;-69
2023/08/06 22:07:21;;;;;;;1.40;1.30;;;;;;;14.24;92.32;98246.61;220852;1254;139877;-69
2023/08/06 22:12:25;;;;;;;1.30;1.00;;;;;;;14.27;92.33;98251.55;219452;1254;140295;-68
2023/08/06 22:17:30;;;;;;;1.30;1.20;;;;;;;14.28;92.08;98251.79;218825;1254;139495;-68
2023/08/06 22:22:37;;;;;;;1.20;1.10;;;;;;;14.31;92.34;98248.31;219585;1254;140467;-69
2023/08/06 22:27:40;;;;;;;1.90;1.20;;;;;;;14.32;92.16;98258.59;218886;1254;140054;-68
2023/08/06 22:32:47;;;;;;;1.00;1.00;;;;;;;14.29;92.05;98266.46;218641;1255;139979;-68
2023/08/06 22:37:50;;;;;;;1.30;1.10;;;;;;;14.24;91.78;98276.95;219603;1254;140487;-69
2023/08/06 22:42:54;;;;;;;1.10;1.10;;;;;;;14.20;92.11;98279.41;218774;1254;139711;-68
2023/08/06 22:47:57;;;;;;;1.00;1.00;;;;;;;14.19;92.03;98279.75;217836;1257;141875;-67
2023/08/06 22:53:04;;;;;;;;;;;;;;;14.21;92.08;98280.80;219243;1254;140725;-67
2023/08/06 22:58:07;;;;;;;0.90;0.90;;;;;;;14.15;92.21;98284.16;218440;1258;126007;-66
2023/08/06 23:03:11;;;;;;;1.60;1.50;;;;;;;14.13;92.00;98282.36;219292;1254;140968;-67
2023/08/06 23:08:15;;;;;;;1.20;1.20;;;;;;;14.14;92.21;98290.02;218030;1254;140583;-67
2023/08/06 23:13:19;;;;;;;1.30;1.20;;;;;;;14.15;92.14;98288.02;218057;1258;140172;-67
2023/08/06 23:18:24;;;;;;;1.60;1.50;;;;;;;14.14;92.12;98290.77;219451;1254;140446;-68